createdAt,value
2022-07-30T00:00:03.541Z,1004.64
2022-07-30T00:00:33.683Z,1004.91
2022-07-30T00:00:50.291Z,1004.91
2022-07-30T00:01:22.947Z,1004.91
2022-07-30T00:01:54.131Z,1004.84
2022-07-30T00:02:26.583Z,1004.84
2022-07-30T00:02:58.225Z,1004.91
2022-07-30T00:03:30.909Z,1004.91
2022-07-30T00:04:02.172Z,1004.84
2022-07-30T00:04:36.734Z,1004.74
2022-07-30T00:05:06.336Z,1004.74
2022-07-30T00:05:33.809Z,1004.74
2022-07-30T00:05:54.208Z,1004.74
2022-07-30T00:06:26.088Z,1004.74
2022-07-30T00:06:59.950Z,1004.84
2022-07-30T00:07:30.239Z,1004.84
2022-07-30T00:08:02.777Z,1004.74
2022-07-30T00:08:35.903Z,1004.74
2022-07-30T00:09:06.564Z,1004.74
2022-07-30T00:09:34.381Z,1004.91
2022-07-30T00:09:54.199Z,1004.91
2022-07-30T00:10:26.312Z,1004.91
2022-07-30T00:10:58.101Z,1004.91
2022-07-30T00:11:30.207Z,1004.91
2022-07-30T00:12:03.876Z,1004.84
2022-07-30T00:12:36.166Z,1004.84
2022-07-30T00:13:06.090Z,1004.84
2022-07-30T00:13:33.658Z,1004.91
2022-07-30T00:13:54.170Z,1004.91
2022-07-30T00:14:26.774Z,1004.91
2022-07-30T00:14:58.892Z,1004.84
2022-07-30T00:15:30.954Z,1004.84
2022-07-30T00:16:02.119Z,1004.74
2022-07-30T00:16:34.361Z,1004.84
2022-07-30T00:17:06.245Z,1004.84
2022-07-30T00:17:33.651Z,1004.84
2022-07-30T00:17:54.073Z,1004.84
2022-07-30T00:18:28.123Z,1004.84
2022-07-30T00:18:58.595Z,1004.91
2022-07-30T00:19:30.174Z,1004.91
2022-07-30T00:20:03.062Z,1005.01
2022-07-30T00:20:34.503Z,1004.91
2022-07-30T00:21:06.739Z,1004.91
2022-07-30T00:21:38.426Z,1005.01
2022-07-30T00:21:54.150Z,1005.01
2022-07-30T00:22:26.123Z,1005.01
2022-07-30T00:22:58.066Z,1004.74
2022-07-30T00:23:30.463Z,1004.74
2022-07-30T00:24:02.528Z,1004.84
2022-07-30T00:24:33.637Z,1004.74
2022-07-30T00:24:50.136Z,1004.74
2022-07-30T00:25:23.900Z,1004.74
2022-07-30T00:25:42.364Z,1004.84
2022-07-30T00:26:10.248Z,1004.84
2022-07-30T00:26:36.125Z,1004.84
2022-07-30T00:26:58.329Z,1004.84
2022-07-30T00:27:30.934Z,1004.84
2022-07-30T00:28:02.113Z,1004.91
2022-07-30T00:28:34.857Z,1004.74
2022-07-30T00:29:06.617Z,1004.74
2022-07-30T00:29:33.604Z,1004.91
2022-07-30T00:29:54.100Z,1004.91
2022-07-30T00:30:26.361Z,1004.91
2022-07-30T00:30:58.997Z,1005.01
2022-07-30T00:31:30.062Z,1005.01
2022-07-30T00:32:03.602Z,1005.11
2022-07-30T00:32:33.722Z,1004.91
2022-07-30T00:32:50.164Z,1004.91
2022-07-30T00:33:22.170Z,1004.91
2022-07-30T00:33:55.183Z,1004.91
2022-07-30T00:34:26.036Z,1004.91
2022-07-30T00:34:58.167Z,1004.74
2022-07-30T00:35:32.603Z,1004.74
2022-07-30T00:36:02.125Z,1004.84
2022-07-30T00:36:35.734Z,1004.84
2022-07-30T00:37:06.038Z,1004.84
2022-07-30T00:37:34.764Z,1004.91
2022-07-30T00:37:54.205Z,1004.91
2022-07-30T00:38:26.656Z,1004.91
2022-07-30T00:38:58.952Z,1004.84
2022-07-30T00:39:30.600Z,1004.84
2022-07-30T00:40:03.583Z,1005.11
2022-07-30T00:40:36.474Z,1004.64
2022-07-30T00:41:06.055Z,1004.64
2022-07-30T00:41:34.280Z,1004.74
2022-07-30T00:41:54.105Z,1004.74
2022-07-30T00:42:27.954Z,1004.74
2022-07-30T00:43:00.721Z,1004.84
2022-07-30T00:43:30.056Z,1004.84
2022-07-30T00:44:04.940Z,1005.01
2022-07-30T00:44:34.140Z,1004.74
2022-07-30T00:45:08.111Z,1004.74
2022-07-30T00:45:33.675Z,1005.01
2022-07-30T00:45:54.301Z,1005.01
2022-07-30T00:46:26.948Z,1005.01
2022-07-30T00:46:59.480Z,1005.01
2022-07-30T00:47:30.157Z,1005.01
2022-07-30T00:48:03.054Z,1004.84
2022-07-30T00:48:36.238Z,1004.91
2022-07-30T00:49:06.345Z,1004.91
2022-07-30T00:49:33.613Z,1004.74
2022-07-30T00:49:54.042Z,1004.74
2022-07-30T00:50:27.773Z,1004.74
2022-07-30T00:50:58.205Z,1004.84
2022-07-30T00:51:30.546Z,1004.84
2022-07-30T00:52:02.249Z,1004.84
2022-07-30T00:52:34.460Z,1005.01
2022-07-30T00:53:06.039Z,1005.01
2022-07-30T00:53:33.843Z,1004.84
2022-07-30T00:53:54.184Z,1004.84
2022-07-30T00:54:26.059Z,1004.84
2022-07-30T00:54:58.817Z,1004.91
2022-07-30T00:55:30.256Z,1004.91
2022-07-30T00:56:03.755Z,1005.11
2022-07-30T00:56:33.726Z,1004.91
2022-07-30T00:57:06.709Z,1004.91
2022-07-30T00:57:33.726Z,1004.84
2022-07-30T00:57:54.360Z,1004.84
2022-07-30T00:58:27.050Z,1004.84
2022-07-30T00:58:58.185Z,1004.91
2022-07-30T00:59:30.128Z,1004.91
2022-07-30T01:00:02.220Z,1005.01
2022-07-30T01:00:33.690Z,1004.91
2022-07-30T01:00:52.646Z,1004.91
2022-07-30T01:01:22.667Z,1004.91
2022-07-30T01:01:54.124Z,1004.74
2022-07-30T01:02:26.625Z,1004.74
2022-07-30T01:02:58.167Z,1004.74
2022-07-30T01:03:31.637Z,1004.74
2022-07-30T01:04:02.904Z,1004.91
2022-07-30T01:04:34.887Z,1004.91
2022-07-30T01:05:06.203Z,1004.91
2022-07-30T01:05:34.488Z,1004.91
2022-07-30T01:05:54.257Z,1004.91
2022-07-30T01:06:26.023Z,1004.91
2022-07-30T01:06:59.999Z,1004.91
2022-07-30T01:07:30.163Z,1004.91
2022-07-30T01:08:03.783Z,1004.74
2022-07-30T01:08:33.603Z,1004.84
2022-07-30T01:08:50.139Z,1004.84
2022-07-30T01:09:22.104Z,1004.84
2022-07-30T01:09:54.123Z,1005.01
2022-07-30T01:10:26.294Z,1005.01
2022-07-30T01:10:58.118Z,1004.91
2022-07-30T01:11:30.769Z,1004.91
2022-07-30T01:12:02.056Z,1004.91
2022-07-30T01:12:33.600Z,1004.74
2022-07-30T01:12:50.250Z,1004.74
2022-07-30T01:13:24.598Z,1004.74
2022-07-30T01:13:41.844Z,1004.84
2022-07-30T01:14:10.866Z,1004.84
2022-07-30T01:14:33.654Z,1004.84
2022-07-30T01:14:58.145Z,1004.84
2022-07-30T01:15:30.812Z,1004.84
2022-07-30T01:16:02.126Z,1005.11
2022-07-30T01:16:34.242Z,1004.91
2022-07-30T01:17:06.147Z,1004.91
2022-07-30T01:17:36.621Z,1004.91
2022-07-30T01:17:54.703Z,1004.91
2022-07-30T01:18:26.058Z,1004.91
2022-07-30T01:18:59.583Z,1004.91
2022-07-30T01:19:32.136Z,1004.91
2022-07-30T01:20:04.779Z,1004.74
2022-07-30T01:20:33.647Z,1004.91
2022-07-30T01:20:51.183Z,1004.91
2022-07-30T01:21:23.010Z,1004.91
2022-07-30T01:21:54.153Z,1005.01
2022-07-30T01:22:30.314Z,1005.01
2022-07-30T01:22:58.017Z,1004.91
2022-07-30T01:23:30.012Z,1004.91
2022-07-30T01:24:02.151Z,1004.84
2022-07-30T01:24:33.620Z,1004.91
2022-07-30T01:24:50.309Z,1004.91
2022-07-30T01:25:22.745Z,1004.91
2022-07-30T01:25:54.126Z,1005.01
2022-07-30T01:26:26.571Z,1005.01
2022-07-30T01:26:58.477Z,1005.11
2022-07-30T01:27:30.548Z,1005.11
2022-07-30T01:28:02.045Z,1004.74
2022-07-30T01:28:36.189Z,1004.74
2022-07-30T01:29:06.164Z,1004.74
2022-07-30T01:29:34.519Z,1004.91
2022-07-30T01:29:54.139Z,1004.91
2022-07-30T01:30:26.242Z,1004.91
2022-07-30T01:30:58.924Z,1004.84
2022-07-30T01:31:30.171Z,1004.84
2022-07-30T01:32:02.686Z,1004.84
2022-07-30T01:32:33.627Z,1004.91
2022-07-30T01:32:50.126Z,1004.91
2022-07-30T01:33:22.187Z,1004.91
2022-07-30T01:33:54.124Z,1004.84
2022-07-30T01:34:26.147Z,1004.84
2022-07-30T01:34:58.114Z,1004.91
2022-07-30T01:35:30.966Z,1004.91
2022-07-30T01:36:02.089Z,1004.91
2022-07-30T01:36:34.508Z,1004.91
2022-07-30T01:37:06.154Z,1004.91
2022-07-30T01:37:33.584Z,1004.91
2022-07-30T01:37:54.053Z,1004.91
2022-07-30T01:38:27.508Z,1004.91
2022-07-30T01:38:58.207Z,1004.84
2022-07-30T01:39:30.535Z,1004.84
2022-07-30T01:40:02.184Z,1004.91
2022-07-30T01:40:34.413Z,1004.91
2022-07-30T01:41:06.050Z,1004.91
2022-07-30T01:41:33.698Z,1004.91
2022-07-30T01:41:54.121Z,1004.91
2022-07-30T01:42:26.038Z,1004.91
2022-07-30T01:42:58.861Z,1004.84
2022-07-30T01:43:30.035Z,1004.84
2022-07-30T01:44:02.778Z,1004.74
2022-07-30T01:44:35.812Z,1004.84
2022-07-30T01:45:06.860Z,1004.84
2022-07-30T01:45:35.727Z,1004.84
2022-07-30T01:45:56.311Z,1004.84
2022-07-30T01:46:26.183Z,1004.84
2022-07-30T01:46:58.438Z,1005.01
2022-07-30T01:47:30.014Z,1005.01
2022-07-30T01:48:02.036Z,1004.91
2022-07-30T01:48:33.677Z,1005.01
2022-07-30T01:48:50.320Z,1005.01
2022-07-30T01:49:23.619Z,1005.01
2022-07-30T01:49:54.028Z,1005.01
2022-07-30T01:50:26.905Z,1005.01
2022-07-30T01:50:58.120Z,1004.91
2022-07-30T01:51:33.220Z,1004.91
2022-07-30T01:52:02.076Z,1004.91
2022-07-30T01:52:34.218Z,1004.91
2022-07-30T01:53:06.039Z,1004.91
2022-07-30T01:53:34.680Z,1004.74
2022-07-30T01:53:54.158Z,1004.74
2022-07-30T01:54:26.232Z,1004.74
2022-07-30T01:54:58.741Z,1004.91
2022-07-30T01:55:30.122Z,1004.91
2022-07-30T01:56:03.510Z,1004.84
2022-07-30T01:56:34.764Z,1004.84
2022-07-30T01:57:06.651Z,1004.84
2022-07-30T01:57:33.603Z,1004.84
2022-07-30T01:57:54.058Z,1004.84
2022-07-30T01:58:26.129Z,1004.84
2022-07-30T01:58:58.110Z,1004.91
2022-07-30T01:59:31.034Z,1004.91
2022-07-30T02:00:02.183Z,1005.01
2022-07-30T02:00:33.734Z,1004.91
2022-07-30T02:01:06.177Z,1004.91
2022-07-30T02:01:33.612Z,1004.84
2022-07-30T02:01:54.897Z,1004.84
2022-07-30T02:02:26.657Z,1004.84
2022-07-30T02:02:58.046Z,1005.01
2022-07-30T02:03:31.627Z,1005.01
2022-07-30T02:04:02.313Z,1005.11
2022-07-30T02:04:34.547Z,1005.01
2022-07-30T02:05:06.101Z,1005.01
2022-07-30T02:05:33.741Z,1004.91
2022-07-30T02:05:55.865Z,1004.91
2022-07-30T02:06:26.788Z,1004.91
2022-07-30T02:06:58.919Z,1004.84
2022-07-30T02:07:30.015Z,1004.84
2022-07-30T02:08:03.865Z,1004.91
2022-07-30T02:08:33.601Z,1005.11
2022-07-30T02:09:11.302Z,1005.11
2022-07-30T02:09:35.307Z,1005.01
2022-07-30T02:09:54.055Z,1005.01
2022-07-30T02:10:26.155Z,1005.01
2022-07-30T02:10:58.119Z,1005.01
2022-07-30T02:11:30.006Z,1005.01
2022-07-30T02:12:02.003Z,1004.91
2022-07-30T02:12:35.081Z,1005.01
2022-07-30T02:13:06.092Z,1005.01
2022-07-30T02:13:33.660Z,1005.01
2022-07-30T02:13:53.975Z,1005.01
2022-07-30T02:14:26.620Z,1005.01
2022-07-30T02:14:58.070Z,1005.21
2022-07-30T02:15:30.910Z,1005.21
2022-07-30T02:16:02.035Z,1005.11
2022-07-30T02:16:36.273Z,1005.01
2022-07-30T02:17:05.970Z,1005.01
2022-07-30T02:17:39.623Z,1005.01
2022-07-30T02:17:54.091Z,1005.01
2022-07-30T02:18:26.111Z,1005.01
2022-07-30T02:18:59.513Z,1005.01
2022-07-30T02:19:32.876Z,1005.01
2022-07-30T02:20:07.906Z,1005.01
2022-07-30T02:20:33.618Z,1005.01
2022-07-30T02:20:50.377Z,1005.01
2022-07-30T02:21:22.050Z,1005.01
2022-07-30T02:21:54.014Z,1005.11
2022-07-30T02:22:26.167Z,1005.11
2022-07-30T02:22:58.524Z,1005.21
2022-07-30T02:23:30.005Z,1005.21
2022-07-30T02:24:02.027Z,1004.91
2022-07-30T02:24:33.745Z,1005.01
2022-07-30T02:25:06.201Z,1005.01
2022-07-30T02:25:34.284Z,1005.01
2022-07-30T02:25:54.119Z,1005.01
2022-07-30T02:26:27.289Z,1005.01
2022-07-30T02:26:58.391Z,1005.01
2022-07-30T02:27:32.391Z,1005.01
2022-07-30T02:28:01.995Z,1004.91
2022-07-30T02:28:34.240Z,1005.11
2022-07-30T02:29:11.092Z,1005.11
2022-07-30T02:29:33.749Z,1005.11
2022-07-30T02:29:54.973Z,1005.11
2022-07-30T02:30:26.270Z,1005.11
2022-07-30T02:30:58.744Z,1005.11
2022-07-30T02:31:30.047Z,1005.11
2022-07-30T02:32:02.733Z,1005.01
2022-07-30T02:32:35.399Z,1005.11
2022-07-30T02:33:06.671Z,1005.11
2022-07-30T02:33:34.626Z,1005.11
2022-07-30T02:33:54.097Z,1005.11
2022-07-30T02:34:26.131Z,1005.11
2022-07-30T02:34:59.065Z,1005.11
2022-07-30T02:35:30.101Z,1005.11
2022-07-30T02:36:01.995Z,1005.11
2022-07-30T02:36:33.731Z,1005.01
2022-07-30T02:37:06.094Z,1005.01
2022-07-30T02:37:41.038Z,1005.11
2022-07-30T02:37:54.089Z,1005.11
2022-07-30T02:38:26.796Z,1005.11
2022-07-30T02:38:58.025Z,1005.01
2022-07-30T02:39:30.607Z,1005.01
2022-07-30T02:40:03.338Z,1005.01
2022-07-30T02:40:35.997Z,1005.01
2022-07-30T02:41:09.098Z,1005.01
2022-07-30T02:41:33.755Z,1004.91
2022-07-30T02:41:54.093Z,1004.91
2022-07-30T02:42:26.080Z,1004.91
2022-07-30T02:42:59.583Z,1005.01
2022-07-30T02:43:30.038Z,1005.01
2022-07-30T02:44:03.506Z,1005.01
2022-07-30T02:44:33.656Z,1005.01
2022-07-30T02:45:07.189Z,1005.01
2022-07-30T02:45:33.775Z,1004.91
2022-07-30T02:45:55.046Z,1004.91
2022-07-30T02:46:27.274Z,1004.91
2022-07-30T02:46:59.270Z,1004.91
2022-07-30T02:47:30.919Z,1004.91
2022-07-30T02:48:01.968Z,1005.01
2022-07-30T02:48:34.884Z,1004.91
2022-07-30T02:49:06.278Z,1004.91
2022-07-30T02:49:33.669Z,1005.01
2022-07-30T02:49:53.973Z,1005.01
2022-07-30T02:50:27.302Z,1005.01
2022-07-30T02:50:58.006Z,1005.01
2022-07-30T02:51:31.683Z,1005.01
2022-07-30T02:52:02.067Z,1005.11
2022-07-30T02:52:35.806Z,1005.01
2022-07-30T02:53:07.006Z,1005.01
2022-07-30T02:53:34.265Z,1005.01
2022-07-30T02:53:54.141Z,1005.01
2022-07-30T02:54:25.983Z,1005.01
2022-07-30T02:54:58.797Z,1004.91
2022-07-30T02:55:30.135Z,1004.91
2022-07-30T02:56:02.932Z,1005.01
2022-07-30T02:56:34.622Z,1005.21
2022-07-30T02:57:06.882Z,1005.21
2022-07-30T02:57:33.609Z,1005.01
2022-07-30T02:57:54.965Z,1005.01
2022-07-30T02:58:26.015Z,1005.01
2022-07-30T02:58:58.141Z,1005.01
2022-07-30T02:59:30.041Z,1005.01
2022-07-30T03:00:02.130Z,1005.11
2022-07-30T03:00:34.753Z,1005.11
2022-07-30T03:01:06.096Z,1005.11
2022-07-30T03:01:33.760Z,1004.91
2022-07-30T03:01:54.674Z,1004.91
2022-07-30T03:02:29.752Z,1004.91
2022-07-30T03:02:57.995Z,1005.11
2022-07-30T03:03:30.842Z,1005.11
2022-07-30T03:04:02.056Z,1005.01
2022-07-30T03:04:34.393Z,1005.01
2022-07-30T03:05:06.085Z,1005.01
2022-07-30T03:05:33.630Z,1005.01
2022-07-30T03:05:54.114Z,1005.01
2022-07-30T03:06:26.120Z,1005.01
2022-07-30T03:06:59.247Z,1005.21
2022-07-30T03:07:29.962Z,1005.21
2022-07-30T03:08:02.922Z,1004.91
2022-07-30T03:08:33.680Z,1005.01
2022-07-30T03:09:08.346Z,1005.01
2022-07-30T03:09:50.858Z,1004.91
2022-07-30T03:10:10.745Z,1004.91
2022-07-30T03:10:33.651Z,1005.11
2022-07-30T03:10:59.022Z,1005.11
2022-07-30T03:11:30.090Z,1005.11
2022-07-30T03:12:02.950Z,1004.91
2022-07-30T03:12:33.669Z,1004.91
2022-07-30T03:13:07.024Z,1004.91
2022-07-30T03:13:33.769Z,1005.21
2022-07-30T03:13:54.041Z,1005.21
2022-07-30T03:14:27.476Z,1005.21
2022-07-30T03:14:59.079Z,1004.91
2022-07-30T03:15:31.385Z,1004.91
2022-07-30T03:16:03.013Z,1004.84
2022-07-30T03:16:36.594Z,1005.11
2022-07-30T03:17:05.959Z,1005.11
2022-07-30T03:17:34.517Z,1005.21
2022-07-30T03:17:53.959Z,1005.21
2022-07-30T03:18:26.015Z,1005.21
2022-07-30T03:18:58.632Z,1005.01
2022-07-30T03:19:30.903Z,1005.01
2022-07-30T03:20:14.516Z,1005.21
2022-07-30T03:20:36.019Z,1005.21
2022-07-30T03:21:09.772Z,1005.21
2022-07-30T03:21:33.743Z,1005.11
2022-07-30T03:21:54.829Z,1005.11
2022-07-30T03:22:28.929Z,1005.11
2022-07-30T03:22:58.362Z,1005.32
2022-07-30T03:23:30.068Z,1005.32
2022-07-30T03:24:03.112Z,1004.91
2022-07-30T03:24:33.634Z,1005.21
2022-07-30T03:25:06.085Z,1005.21
2022-07-30T03:25:34.154Z,1005.01
2022-07-30T03:25:57.269Z,1005.01
2022-07-30T03:26:27.494Z,1005.01
2022-07-30T03:26:59.053Z,1005.21
2022-07-30T03:27:31.008Z,1005.21
2022-07-30T03:28:02.830Z,1005.32
2022-07-30T03:28:34.444Z,1005.01
2022-07-30T03:29:06.546Z,1005.01
2022-07-30T03:29:34.616Z,1005.32
2022-07-30T03:29:55.926Z,1005.32
2022-07-30T03:30:26.232Z,1005.32
2022-07-30T03:30:58.143Z,1005.21
2022-07-30T03:31:36.344Z,1005.21
2022-07-30T03:32:01.973Z,1005.21
2022-07-30T03:32:35.362Z,1005.21
2022-07-30T03:33:06.902Z,1005.21
2022-07-30T03:33:38.221Z,1005.32
2022-07-30T03:33:55.795Z,1005.32
2022-07-30T03:34:28.151Z,1005.32
2022-07-30T03:34:58.541Z,1005.32
2022-07-30T03:35:31.487Z,1005.32
2022-07-30T03:36:02.853Z,1005.11
2022-07-30T03:36:36.335Z,1005.32
2022-07-30T03:37:05.974Z,1005.32
2022-07-30T03:37:33.725Z,1005.32
2022-07-30T03:37:54.085Z,1005.32
2022-07-30T03:38:26.959Z,1005.32
2022-07-30T03:38:58.009Z,1005.32
2022-07-30T03:39:31.173Z,1005.32
2022-07-30T03:40:02.333Z,1005.52
2022-07-30T03:40:37.933Z,1005.32
2022-07-30T03:41:05.990Z,1005.32
2022-07-30T03:41:35.816Z,1005.32
2022-07-30T03:41:54.074Z,1005.32
2022-07-30T03:42:30.038Z,1005.32
2022-07-30T03:42:58.725Z,1005.42
2022-07-30T03:43:33.328Z,1005.42
2022-07-30T03:44:02.980Z,1005.11
2022-07-30T03:44:36.433Z,1005.32
2022-07-30T03:45:06.628Z,1005.32
2022-07-30T03:45:33.624Z,1005.42
2022-07-30T03:45:54.141Z,1005.42
2022-07-30T03:46:26.026Z,1005.42
2022-07-30T03:46:59.424Z,1005.42
2022-07-30T03:47:31.315Z,1005.42
2022-07-30T03:48:01.975Z,1005.21
2022-07-30T03:48:36.284Z,1005.52
2022-07-30T03:49:06.154Z,1005.52
2022-07-30T03:49:33.751Z,1005.42
2022-07-30T03:49:54.563Z,1005.42
2022-07-30T03:50:26.380Z,1005.42
2022-07-30T03:51:00.770Z,1005.42
2022-07-30T03:51:32.997Z,1005.42
2022-07-30T03:52:21.763Z,1005.32
2022-07-30T03:52:50.109Z,1005.42
2022-07-30T03:53:22.710Z,1005.42
2022-07-30T03:53:53.970Z,1005.42
2022-07-30T03:54:27.067Z,1005.42
2022-07-30T03:54:58.683Z,1005.21
2022-07-30T03:55:30.659Z,1005.21
2022-07-30T03:56:02.978Z,1005.62
2022-07-30T03:56:34.556Z,1005.32
2022-07-30T03:57:06.124Z,1005.32
2022-07-30T03:57:34.536Z,1005.42
2022-07-30T03:57:54.049Z,1005.42
2022-07-30T03:58:26.002Z,1005.42
2022-07-30T03:58:58.528Z,1005.32
2022-07-30T03:59:30.080Z,1005.32
2022-07-30T04:00:03.958Z,1005.42
2022-07-30T04:00:36.014Z,1005.32
2022-07-30T04:01:06.595Z,1005.32
2022-07-30T04:01:36.065Z,1005.42
2022-07-30T04:01:54.134Z,1005.42
2022-07-30T04:02:27.024Z,1005.42
2022-07-30T04:02:58.144Z,1005.42
2022-07-30T04:03:30.204Z,1005.42
2022-07-30T04:04:02.127Z,1005.42
2022-07-30T04:04:33.801Z,1005.62
2022-07-30T04:05:06.214Z,1005.62
2022-07-30T04:05:41.396Z,1005.62
2022-07-30T04:05:54.352Z,1005.62
2022-07-30T04:06:26.973Z,1005.62
2022-07-30T04:06:59.354Z,1005.72
2022-07-30T04:07:31.006Z,1005.72
2022-07-30T04:08:02.128Z,1005.52
2022-07-30T04:08:34.541Z,1005.32
2022-07-30T04:09:06.022Z,1005.32
2022-07-30T04:09:35.403Z,1005.52
2022-07-30T04:09:54.079Z,1005.52
2022-07-30T04:10:26.314Z,1005.52
2022-07-30T04:10:58.659Z,1005.42
2022-07-30T04:11:40.628Z,1005.42
2022-07-30T04:12:02.965Z,1005.42
2022-07-30T04:12:33.831Z,1005.52
2022-07-30T04:13:09.649Z,1005.52
2022-07-30T04:13:33.702Z,1005.11
2022-07-30T04:13:54.080Z,1005.11
2022-07-30T04:14:26.218Z,1005.11
2022-07-30T04:14:58.166Z,1005.42
2022-07-30T04:16:16.709Z,1005.42
2022-07-30T04:16:50.148Z,1005.62
2022-07-30T04:17:23.639Z,1005.62
2022-07-30T04:17:54.001Z,1005.52
2022-07-30T04:18:26.587Z,1005.52
2022-07-30T04:18:58.120Z,1005.42
2022-07-30T04:19:30.699Z,1005.42
2022-07-30T04:20:02.136Z,1005.42
2022-07-30T04:20:35.359Z,1005.52
2022-07-30T04:21:06.132Z,1005.52
2022-07-30T04:21:33.781Z,1005.52
2022-07-30T04:21:54.027Z,1005.52
2022-07-30T04:22:28.014Z,1005.52
2022-07-30T04:22:58.746Z,1005.72
2022-07-30T04:23:30.244Z,1005.72
2022-07-30T04:24:04.715Z,1005.52
2022-07-30T04:24:33.849Z,1005.32
2022-07-30T04:25:06.981Z,1005.32
2022-07-30T04:25:35.467Z,1005.52
2022-07-30T04:25:54.272Z,1005.52
2022-07-30T04:26:26.035Z,1005.52
2022-07-30T04:26:58.412Z,1005.62
2022-07-30T04:27:30.097Z,1005.62
2022-07-30T04:28:03.619Z,1005.42
2022-07-30T04:28:33.675Z,1005.62
2022-07-30T04:29:05.958Z,1005.62
2022-07-30T04:29:33.752Z,1005.52
2022-07-30T04:29:54.173Z,1005.52
2022-07-30T04:30:27.130Z,1005.52
2022-07-30T04:30:58.228Z,1005.42
2022-07-30T04:31:30.884Z,1005.42
2022-07-30T04:32:02.045Z,1005.32
2022-07-30T04:32:34.308Z,1005.42
2022-07-30T04:33:06.142Z,1005.42
2022-07-30T04:33:33.719Z,1005.42
2022-07-30T04:33:54.027Z,1005.42
2022-07-30T04:34:26.101Z,1005.42
2022-07-30T04:34:58.499Z,1005.21
2022-07-30T04:35:51.642Z,1005.21
2022-07-30T04:36:02.716Z,1005.62
2022-07-30T04:36:33.830Z,1005.52
2022-07-30T04:37:07.625Z,1005.52
2022-07-30T04:37:33.779Z,1005.62
2022-07-30T04:37:54.021Z,1005.62
2022-07-30T04:38:26.969Z,1005.62
2022-07-30T04:38:58.091Z,1005.72
2022-07-30T04:39:30.165Z,1005.72
2022-07-30T04:40:03.275Z,1005.93
2022-07-30T04:40:33.726Z,1005.62
2022-07-30T04:41:07.061Z,1005.62
2022-07-30T04:41:48.447Z,1005.72
2022-07-30T04:41:54.179Z,1005.72
2022-07-30T04:42:26.619Z,1005.72
2022-07-30T04:42:58.966Z,1005.62
2022-07-30T04:43:30.503Z,1005.62
2022-07-30T04:44:02.163Z,1005.72
2022-07-30T04:44:35.084Z,1005.93
2022-07-30T04:45:07.083Z,1005.93
2022-07-30T04:45:33.853Z,1005.82
2022-07-30T04:45:54.279Z,1005.82
2022-07-30T04:46:26.154Z,1005.82
2022-07-30T04:46:59.005Z,1005.62
2022-07-30T04:47:30.043Z,1005.62
2022-07-30T04:48:02.655Z,1005.72
2022-07-30T04:48:34.682Z,1005.52
2022-07-30T04:49:06.666Z,1005.52
2022-07-30T04:49:34.517Z,1005.93
2022-07-30T04:49:54.042Z,1005.93
2022-07-30T04:50:27.205Z,1005.93
2022-07-30T04:50:58.217Z,1005.72
2022-07-30T04:51:30.024Z,1005.72
2022-07-30T04:52:01.995Z,1005.82
2022-07-30T04:52:33.866Z,1005.72
2022-07-30T04:53:06.095Z,1005.72
2022-07-30T04:53:33.789Z,1005.62
2022-07-30T04:53:54.019Z,1005.62
2022-07-30T04:54:26.917Z,1005.62
2022-07-30T04:54:58.963Z,1005.82
2022-07-30T04:55:30.782Z,1005.82
2022-07-30T04:56:02.795Z,1005.72
2022-07-30T04:56:35.772Z,1005.62
2022-07-30T04:57:06.511Z,1005.62
2022-07-30T04:57:33.824Z,1005.62
2022-07-30T04:57:54.103Z,1005.62
2022-07-30T04:58:26.017Z,1005.62
2022-07-30T04:58:58.710Z,1005.82
2022-07-30T04:59:32.089Z,1005.82
2022-07-30T05:00:03.863Z,1005.62
2022-07-30T05:00:36.629Z,1005.62
2022-07-30T05:01:06.718Z,1005.62
2022-07-30T05:01:37.137Z,1005.62
2022-07-30T05:01:54.267Z,1005.62
2022-07-30T05:02:26.072Z,1005.62
2022-07-30T05:02:58.084Z,1005.72
2022-07-30T05:03:29.997Z,1005.72
2022-07-30T05:04:03.019Z,1005.72
2022-07-30T05:04:33.740Z,1005.82
2022-07-30T05:05:06.245Z,1005.82
2022-07-30T05:05:33.778Z,1005.72
2022-07-30T05:05:57.489Z,1005.72
2022-07-30T05:06:26.815Z,1005.72
2022-07-30T05:06:58.659Z,1005.82
2022-07-30T05:07:31.477Z,1005.82
2022-07-30T05:08:03.100Z,1005.93
2022-07-30T05:08:35.411Z,1005.93
2022-07-30T05:09:06.000Z,1005.93
2022-07-30T05:09:33.703Z,1005.72
2022-07-30T05:09:54.000Z,1005.72
2022-07-30T05:10:27.275Z,1005.72
2022-07-30T05:10:58.704Z,1005.82
2022-07-30T05:11:30.044Z,1005.82
2022-07-30T05:12:02.708Z,1006.03
2022-07-30T05:12:33.858Z,1006.13
2022-07-30T05:13:07.997Z,1006.13
2022-07-30T05:13:34.558Z,1005.82
2022-07-30T05:13:54.608Z,1005.82
2022-07-30T05:14:25.993Z,1005.82
2022-07-30T05:14:58.109Z,1006.03
2022-07-30T05:15:35.854Z,1006.03
2022-07-30T05:16:02.036Z,1005.82
2022-07-30T05:16:34.703Z,1006.03
2022-07-30T05:17:06.099Z,1006.03
2022-07-30T05:17:33.870Z,1005.93
2022-07-30T05:17:54.153Z,1005.93
2022-07-30T05:18:26.736Z,1005.93
2022-07-30T05:18:58.019Z,1006.13
2022-07-30T05:19:30.737Z,1006.13
2022-07-30T05:20:02.324Z,1005.93
2022-07-30T05:20:34.676Z,1006.03
2022-07-30T05:21:06.022Z,1006.03
2022-07-30T05:21:33.755Z,1006.03
2022-07-30T05:21:54.113Z,1006.03
2022-07-30T05:22:26.103Z,1006.03
2022-07-30T05:22:58.696Z,1005.72
2022-07-30T05:23:31.082Z,1005.72
2022-07-30T05:24:02.614Z,1006.03
2022-07-30T05:24:33.696Z,1006.13
2022-07-30T05:25:16.158Z,1006.13
2022-07-30T05:25:33.766Z,1006.13
2022-07-30T05:25:54.278Z,1006.13
2022-07-30T05:26:27.851Z,1006.13
2022-07-30T05:26:58.347Z,1005.93
2022-07-30T05:27:30.990Z,1005.93
2022-07-30T05:28:02.063Z,1005.93
2022-07-30T05:28:33.848Z,1005.93
2022-07-30T05:29:07.323Z,1005.93
2022-07-30T05:29:33.700Z,1006.03
2022-07-30T05:29:55.333Z,1006.03
2022-07-30T05:30:27.738Z,1006.03
2022-07-30T05:30:59.289Z,1006.23
2022-07-30T05:31:31.128Z,1006.23
2022-07-30T05:32:03.396Z,1006.03
2022-07-30T05:32:34.900Z,1006.03
2022-07-30T05:33:11.617Z,1006.03
2022-07-30T05:33:40.164Z,1005.93
2022-07-30T05:33:54.009Z,1005.93
2022-07-30T05:34:26.019Z,1005.93
2022-07-30T05:34:59.407Z,1006.03
2022-07-30T05:35:30.217Z,1006.03
2022-07-30T05:36:03.341Z,1006.13
2022-07-30T05:36:35.946Z,1006.13
2022-07-30T05:37:07.457Z,1006.13
2022-07-30T05:37:35.750Z,1005.82
2022-07-30T05:37:54.794Z,1005.82
2022-07-30T05:38:25.969Z,1005.82
2022-07-30T05:38:58.003Z,1005.93
2022-07-30T05:39:30.157Z,1005.93
2022-07-30T05:40:03.702Z,1006.03
2022-07-30T05:40:33.718Z,1006.03
2022-07-30T05:41:05.990Z,1006.03
2022-07-30T05:41:33.808Z,1006.23
2022-07-30T05:41:54.137Z,1006.23
2022-07-30T05:42:26.604Z,1006.23
2022-07-30T05:42:57.968Z,1005.82
2022-07-30T05:43:30.646Z,1005.82
2022-07-30T05:44:02.155Z,1006.03
2022-07-30T05:44:34.476Z,1006.23
2022-07-30T05:45:08.051Z,1006.23
2022-07-30T05:45:33.835Z,1006.23
2022-07-30T05:45:57.068Z,1006.23
2022-07-30T05:46:26.210Z,1006.23
2022-07-30T05:46:58.998Z,1005.93
2022-07-30T05:47:31.046Z,1005.93
2022-07-30T05:48:02.610Z,1006.13
2022-07-30T05:48:33.803Z,1006.03
2022-07-30T05:49:06.805Z,1006.03
2022-07-30T05:49:34.109Z,1006.23
2022-07-30T05:49:54.010Z,1006.23
2022-07-30T05:50:26.217Z,1006.23
2022-07-30T05:50:58.097Z,1005.93
2022-07-30T05:51:29.978Z,1005.93
2022-07-30T05:52:02.974Z,1006.13
2022-07-30T05:52:33.837Z,1006.23
2022-07-30T05:53:06.039Z,1006.23
2022-07-30T05:53:33.725Z,1006.13
2022-07-30T05:53:53.980Z,1006.13
2022-07-30T05:54:26.685Z,1006.13
2022-07-30T05:54:58.416Z,1006.13
2022-07-30T05:55:30.760Z,1006.13
2022-07-30T05:56:01.984Z,1006.13
2022-07-30T05:56:34.612Z,1006.23
2022-07-30T05:57:06.925Z,1006.23
2022-07-30T05:57:33.869Z,1006.23
2022-07-30T05:57:54.382Z,1006.23
2022-07-30T05:58:26.023Z,1006.23
2022-07-30T05:58:59.527Z,1006.23
2022-07-30T05:59:30.322Z,1006.23
2022-07-30T06:00:02.774Z,1006.13
2022-07-30T06:00:33.741Z,1006.23
2022-07-30T06:01:06.819Z,1006.23
2022-07-30T06:01:33.843Z,1006.03
2022-07-30T06:01:54.105Z,1006.03
2022-07-30T06:02:26.901Z,1006.03
2022-07-30T06:02:57.968Z,1006.23